sensor_id;sensor_type;location;lat;lon;timestamp;P1;durP1;ratioP1;P2;durP2;ratioP2
71187;SDS011;58893;53.130;8.158;2022-10-29T00:02:22;12.47;;;5.07;;
71187;SDS011;58893;53.130;8.158;2022-10-29T00:04:48;22.17;;;4.67;;
71187;SDS011;58893;53.130;8.158;2022-10-29T00:07:13;26.47;;;4.80;;
71187;SDS011;58893;53.130;8.158;2022-10-29T00:09:39;26.03;;;5.40;;
71187;SDS011;58893;53.130;8.158;2022-10-29T00:12:05;24.03;;;4.70;;
71187;SDS011;58893;53.130;8.158;2022-10-29T00:14:30;26.93;;;4.87;;
71187;SDS011;58893;53.130;8.158;2022-10-29T00:16:56;14.77;;;4.60;;
71187;SDS011;58893;53.130;8.158;2022-10-29T00:19:22;24.30;;;4.97;;
71187;SDS011;58893;53.130;8.158;2022-10-29T00:21:50;25.57;;;7.50;;
71187;SDS011;58893;53.130;8.158;2022-10-29T00:24:16;17.37;;;4.20;;
71187;SDS011;58893;53.130;8.158;2022-10-29T00:26:41;7.33;;;4.03;;
71187;SDS011;58893;53.130;8.158;2022-10-29T00:29:07;17.13;;;4.70;;
71187;SDS011;58893;53.130;8.158;2022-10-29T00:31:33;16.30;;;4.57;;
71187;SDS011;58893;53.130;8.158;2022-10-29T00:33:58;17.70;;;4.33;;
71187;SDS011;58893;53.130;8.158;2022-10-29T00:36:25;21.10;;;4.23;;
71187;SDS011;58893;53.130;8.158;2022-10-29T00:38:52;11.13;;;4.40;;
71187;SDS011;58893;53.130;8.158;2022-10-29T00:41:20;24.73;;;5.97;;
71187;SDS011;58893;53.130;8.158;2022-10-29T00:43:51;14.97;;;4.60;;
71187;SDS011;58893;53.130;8.158;2022-10-29T00:46:42;29.27;;;4.67;;
71187;SDS011;58893;53.130;8.158;2022-10-29T00:49:12;20.33;;;4.53;;
71187;SDS011;58893;53.130;8.158;2022-10-29T00:51:39;16.00;;;4.60;;
71187;SDS011;58893;53.130;8.158;2022-10-29T00:54:09;9.43;;;4.10;;
71187;SDS011;58893;53.130;8.158;2022-10-29T00:56:37;31.27;;;4.20;;
71187;SDS011;58893;53.130;8.158;2022-10-29T00:59:06;22.90;;;5.37;;
71187;SDS011;58893;53.130;8.158;2022-10-29T01:01:33;19.70;;;4.53;;
71187;SDS011;58893;53.130;8.158;2022-10-29T01:04:00;17.83;;;4.83;;
71187;SDS011;58893;53.130;8.158;2022-10-29T01:06:27;22.80;;;5.00;;
71187;SDS011;58893;53.130;8.158;2022-10-29T01:08:54;28.33;;;5.10;;
71187;SDS011;58893;53.130;8.158;2022-10-29T01:11:27;12.00;;;5.17;;
71187;SDS011;58893;53.130;8.158;2022-10-29T01:16:54;18.33;;;5.50;;
71187;SDS011;58893;53.130;8.158;2022-10-29T01:20:05;14.80;;;5.20;;
71187;SDS011;58893;53.130;8.158;2022-10-29T01:22:42;20.83;;;4.70;;
71187;SDS011;58893;53.130;8.158;2022-10-29T01:33:44;15.53;;;4.13;;
71187;SDS011;58893;53.130;8.158;2022-10-29T01:38:48;11.97;;;4.40;;
71187;SDS011;58893;53.130;8.158;2022-10-29T01:47:04;8.77;;;4.20;;
71187;SDS011;58893;53.130;8.158;2022-10-29T01:49:42;16.97;;;3.90;;
71187;SDS011;58893;53.130;8.158;2022-10-29T01:52:12;19.10;;;4.40;;
71187;SDS011;58893;53.130;8.158;2022-10-29T01:54:41;22.33;;;5.20;;
71187;SDS011;58893;53.130;8.158;2022-10-29T01:59:52;16.83;;;5.70;;
71187;SDS011;58893;53.130;8.158;2022-10-29T02:02:29;20.07;;;4.80;;
71187;SDS011;58893;53.130;8.158;2022-10-29T02:12:57;12.17;;;4.40;;
71187;SDS011;58893;53.130;8.158;2022-10-29T02:18:15;12.47;;;4.73;;
71187;SDS011;58893;53.130;8.158;2022-10-29T02:20:42;25.23;;;5.17;;
71187;SDS011;58893;53.130;8.158;2022-10-29T02:23:09;12.30;;;3.63;;
71187;SDS011;58893;53.130;8.158;2022-10-29T02:25:35;16.90;;;4.80;;
71187;SDS011;58893;53.130;8.158;2022-10-29T02:28:00;18.47;;;4.43;;
71187;SDS011;58893;53.130;8.158;2022-10-29T02:30:26;10.87;;;3.73;;
71187;SDS011;58893;53.130;8.158;2022-10-29T02:32:52;11.80;;;4.40;;
71187;SDS011;58893;53.130;8.158;2022-10-29T02:35:17;11.37;;;3.53;;
71187;SDS011;58893;53.130;8.158;2022-10-29T02:37:43;19.47;;;4.53;;
71187;SDS011;58893;53.130;8.158;2022-10-29T02:40:09;19.80;;;4.70;;
71187;SDS011;58893;53.130;8.158;2022-10-29T02:42:35;11.23;;;3.43;;
71187;SDS011;58893;53.130;8.158;2022-10-29T02:45:00;15.10;;;3.93;;
71187;SDS011;58893;53.130;8.158;2022-10-29T02:47:26;20.37;;;4.67;;
71187;SDS011;58893;53.130;8.158;2022-10-29T02:49:52;7.83;;;3.80;;
71187;SDS011;58893;53.130;8.158;2022-10-29T02:52:17;12.30;;;3.67;;
71187;SDS011;58893;53.130;8.158;2022-10-29T02:54:43;15.20;;;4.53;;
71187;SDS011;58893;53.130;8.158;2022-10-29T02:57:09;12.43;;;4.00;;
71187;SDS011;58893;53.130;8.158;2022-10-29T02:59:34;13.43;;;4.40;;
71187;SDS011;58893;53.130;8.158;2022-10-29T03:02:00;11.70;;;4.00;;
71187;SDS011;58893;53.130;8.158;2022-10-29T03:04:26;11.57;;;3.57;;
71187;SDS011;58893;53.130;8.158;2022-10-29T03:06:51;10.20;;;3.83;;
71187;SDS011;58893;53.130;8.158;2022-10-29T03:09:17;16.73;;;5.30;;
71187;SDS011;58893;53.130;8.158;2022-10-29T03:11:42;17.73;;;5.13;;
71187;SDS011;58893;53.130;8.158;2022-10-29T03:14:08;13.67;;;4.50;;
71187;SDS011;58893;53.130;8.158;2022-10-29T03:16:34;21.47;;;4.77;;
71187;SDS011;58893;53.130;8.158;2022-10-29T03:18:59;11.10;;;4.77;;
71187;SDS011;58893;53.130;8.158;2022-10-29T03:21:25;16.90;;;3.70;;
71187;SDS011;58893;53.130;8.158;2022-10-29T03:23:50;8.33;;;4.03;;
71187;SDS011;58893;53.130;8.158;2022-10-29T03:26:16;12.17;;;4.00;;
71187;SDS011;58893;53.130;8.158;2022-10-29T03:28:42;8.70;;;3.67;;
71187;SDS011;58893;53.130;8.158;2022-10-29T03:31:07;10.87;;;3.90;;
71187;SDS011;58893;53.130;8.158;2022-10-29T03:33:33;17.63;;;4.40;;
71187;SDS011;58893;53.130;8.158;2022-10-29T03:36:01;11.80;;;4.03;;
71187;SDS011;58893;53.130;8.158;2022-10-29T03:38:29;18.50;;;5.50;;
71187;SDS011;58893;53.130;8.158;2022-10-29T03:40:55;8.53;;;4.00;;
71187;SDS011;58893;53.130;8.158;2022-10-29T03:43:21;12.93;;;3.50;;
71187;SDS011;58893;53.130;8.158;2022-10-29T03:45:51;20.03;;;4.23;;
71187;SDS011;58893;53.130;8.158;2022-10-29T03:48:21;19.60;;;4.10;;
71187;SDS011;58893;53.130;8.158;2022-10-29T03:50:54;15.13;;;5.93;;
71187;SDS011;58893;53.130;8.158;2022-10-29T03:53:20;11.17;;;2.97;;
71187;SDS011;58893;53.130;8.158;2022-10-29T03:55:46;11.37;;;4.00;;
71187;SDS011;58893;53.130;8.158;2022-10-29T03:58:13;6.40;;;3.70;;
71187;SDS011;58893;53.130;8.158;2022-10-29T04:00:39;8.37;;;3.30;;
71187;SDS011;58893;53.130;8.158;2022-10-29T04:03:04;9.47;;;4.43;;
71187;SDS011;58893;53.130;8.158;2022-10-29T04:05:30;10.53;;;3.83;;
71187;SDS011;58893;53.130;8.158;2022-10-29T04:07:55;6.83;;;3.60;;
71187;SDS011;58893;53.130;8.158;2022-10-29T04:10:21;8.50;;;3.67;;
71187;SDS011;58893;53.130;8.158;2022-10-29T04:12:46;10.00;;;3.10;;
71187;SDS011;58893;53.130;8.158;2022-10-29T04:15:12;23.90;;;4.33;;
71187;SDS011;58893;53.130;8.158;2022-10-29T04:17:38;4.80;;;3.97;;
71187;SDS011;58893;53.130;8.158;2022-10-29T04:20:03;11.43;;;3.20;;
71187;SDS011;58893;53.130;8.158;2022-10-29T04:22:29;18.47;;;4.73;;
71187;SDS011;58893;53.130;8.158;2022-10-29T04:24:54;10.37;;;4.20;;
71187;SDS011;58893;53.130;8.158;2022-10-29T04:27:20;17.67;;;4.53;;
71187;SDS011;58893;53.130;8.158;2022-10-29T04:29:46;19.27;;;4.10;;
71187;SDS011;58893;53.130;8.158;2022-10-29T04:32:11;6.60;;;3.77;;
71187;SDS011;58893;53.130;8.158;2022-10-29T04:34:37;4.53;;;2.93;;
71187;SDS011;58893;53.130;8.158;2022-10-29T04:37:02;10.37;;;3.80;;
71187;SDS011;58893;53.130;8.158;2022-10-29T04:39:28;20.57;;;4.40;;
71187;SDS011;58893;53.130;8.158;2022-10-29T04:41:53;8.07;;;4.30;;
71187;SDS011;58893;53.130;8.158;2022-10-29T04:44:19;11.23;;;4.00;;
71187;SDS011;58893;53.130;8.158;2022-10-29T04:46:45;16.70;;;4.43;;
71187;SDS011;58893;53.130;8.158;2022-10-29T04:49:11;11.00;;;4.73;;
71187;SDS011;58893;53.130;8.158;2022-10-29T04:51:37;13.87;;;3.40;;
71187;SDS011;58893;53.130;8.158;2022-10-29T04:54:02;9.57;;;3.70;;
71187;SDS011;58893;53.130;8.158;2022-10-29T04:56:29;8.33;;;3.60;;
71187;SDS011;58893;53.130;8.158;2022-10-29T04:58:54;8.60;;;3.80;;
71187;SDS011;58893;53.130;8.158;2022-10-29T05:01:20;10.73;;;4.30;;
71187;SDS011;58893;53.130;8.158;2022-10-29T05:03:46;10.80;;;5.23;;
71187;SDS011;58893;53.130;8.158;2022-10-29T05:06:11;13.10;;;5.03;;
71187;SDS011;58893;53.130;8.158;2022-10-29T05:08:37;39.37;;;7.40;;
71187;SDS011;58893;53.130;8.158;2022-10-29T05:11:03;13.70;;;5.20;;
71187;SDS011;58893;53.130;8.158;2022-10-29T05:13:29;15.27;;;4.70;;
71187;SDS011;58893;53.130;8.158;2022-10-29T05:15:55;18.37;;;5.37;;
71187;SDS011;58893;53.130;8.158;2022-10-29T05:18:21;10.30;;;3.77;;
71187;SDS011;58893;53.130;8.158;2022-10-29T05:20:47;12.60;;;4.50;;
71187;SDS011;58893;53.130;8.158;2022-10-29T05:23:12;9.27;;;5.20;;
71187;SDS011;58893;53.130;8.158;2022-10-29T05:25:39;11.50;;;4.00;;
71187;SDS011;58893;53.130;8.158;2022-10-29T05:28:10;6.40;;;3.33;;
71187;SDS011;58893;53.130;8.158;2022-10-29T05:30:38;5.20;;;3.40;;
71187;SDS011;58893;53.130;8.158;2022-10-29T05:33:04;12.50;;;3.60;;
71187;SDS011;58893;53.130;8.158;2022-10-29T05:35:31;7.90;;;3.20;;
71187;SDS011;58893;53.130;8.158;2022-10-29T05:37:57;5.77;;;3.00;;
71187;SDS011;58893;53.130;8.158;2022-10-29T05:40:22;10.90;;;2.83;;
71187;SDS011;58893;53.130;8.158;2022-10-29T05:42:48;13.37;;;3.60;;
71187;SDS011;58893;53.130;8.158;2022-10-29T05:45:14;6.20;;;3.50;;
71187;SDS011;58893;53.130;8.158;2022-10-29T05:47:41;6.17;;;3.00;;
71187;SDS011;58893;53.130;8.158;2022-10-29T05:50:07;11.10;;;3.87;;
71187;SDS011;58893;53.130;8.158;2022-10-29T05:52:33;9.50;;;3.20;;
71187;SDS011;58893;53.130;8.158;2022-10-29T05:54:59;5.40;;;3.60;;
71187;SDS011;58893;53.130;8.158;2022-10-29T05:57:24;6.83;;;3.47;;
71187;SDS011;58893;53.130;8.158;2022-10-29T05:59:51;6.87;;;3.40;;
71187;SDS011;58893;53.130;8.158;2022-10-29T06:02:16;8.93;;;3.00;;
71187;SDS011;58893;53.130;8.158;2022-10-29T06:04:42;5.37;;;2.30;;
71187;SDS011;58893;53.130;8.158;2022-10-29T06:07:07;10.10;;;2.57;;
71187;SDS011;58893;53.130;8.158;2022-10-29T06:09:33;9.30;;;2.80;;
71187;SDS011;58893;53.130;8.158;2022-10-29T06:11:59;6.60;;;2.30;;
71187;SDS011;58893;53.130;8.158;2022-10-29T06:14:24;6.33;;;2.73;;
71187;SDS011;58893;53.130;8.158;2022-10-29T06:16:50;17.00;;;5.40;;
71187;SDS011;58893;53.130;8.158;2022-10-29T06:19:15;13.03;;;3.77;;
71187;SDS011;58893;53.130;8.158;2022-10-29T06:21:41;6.20;;;3.43;;
71187;SDS011;58893;53.130;8.158;2022-10-29T06:24:07;11.10;;;3.13;;
71187;SDS011;58893;53.130;8.158;2022-10-29T06:26:32;15.50;;;4.37;;
71187;SDS011;58893;53.130;8.158;2022-10-29T06:28:58;8.97;;;3.13;;
71187;SDS011;58893;53.130;8.158;2022-10-29T06:31:24;17.33;;;3.23;;
71187;SDS011;58893;53.130;8.158;2022-10-29T06:33:50;9.07;;;3.43;;
71187;SDS011;58893;53.130;8.158;2022-10-29T06:36:15;8.40;;;4.00;;
71187;SDS011;58893;53.130;8.158;2022-10-29T06:38:41;15.90;;;4.60;;
71187;SDS011;58893;53.130;8.158;2022-10-29T06:41:07;16.40;;;4.00;;
71187;SDS011;58893;53.130;8.158;2022-10-29T06:43:33;9.27;;;3.53;;
71187;SDS011;58893;53.130;8.158;2022-10-29T06:45:59;9.27;;;3.50;;
71187;SDS011;58893;53.130;8.158;2022-10-29T06:48:24;8.23;;;4.03;;
71187;SDS011;58893;53.130;8.158;2022-10-29T06:50:50;17.33;;;4.23;;
71187;SDS011;58893;53.130;8.158;2022-10-29T06:53:16;8.10;;;3.80;;
71187;SDS011;58893;53.130;8.158;2022-10-29T06:55:42;6.20;;;3.53;;
71187;SDS011;58893;53.130;8.158;2022-10-29T06:58:12;14.13;;;4.67;;
71187;SDS011;58893;53.130;8.158;2022-10-29T07:00:40;8.87;;;4.13;;
71187;SDS011;58893;53.130;8.158;2022-10-29T07:03:07;12.70;;;4.53;;
71187;SDS011;58893;53.130;8.158;2022-10-29T07:05:35;12.97;;;4.40;;
71187;SDS011;58893;53.130;8.158;2022-10-29T07:08:01;11.80;;;4.47;;
71187;SDS011;58893;53.130;8.158;2022-10-29T07:10:27;12.67;;;4.40;;
71187;SDS011;58893;53.130;8.158;2022-10-29T07:12:54;13.93;;;5.00;;
71187;SDS011;58893;53.130;8.158;2022-10-29T07:15:20;20.03;;;5.90;;
71187;SDS011;58893;53.130;8.158;2022-10-29T07:17:53;8.57;;;5.33;;
71187;SDS011;58893;53.130;8.158;2022-10-29T07:20:22;29.07;;;5.73;;
71187;SDS011;58893;53.130;8.158;2022-10-29T07:22:48;13.50;;;4.77;;
71187;SDS011;58893;53.130;8.158;2022-10-29T07:25:13;28.87;;;6.63;;
71187;SDS011;58893;53.130;8.158;2022-10-29T07:27:39;30.27;;;8.20;;
71187;SDS011;58893;53.130;8.158;2022-10-29T07:30:05;24.33;;;6.63;;
71187;SDS011;58893;53.130;8.158;2022-10-29T07:32:30;21.20;;;5.67;;
71187;SDS011;58893;53.130;8.158;2022-10-29T07:34:56;16.10;;;5.33;;
71187;SDS011;58893;53.130;8.158;2022-10-29T07:37:21;32.20;;;5.67;;
71187;SDS011;58893;53.130;8.158;2022-10-29T07:39:47;23.97;;;5.87;;
71187;SDS011;58893;53.130;8.158;2022-10-29T07:42:13;43.83;;;8.63;;
71187;SDS011;58893;53.130;8.158;2022-10-29T07:44:38;27.97;;;7.77;;
71187;SDS011;58893;53.130;8.158;2022-10-29T07:47:04;26.40;;;7.50;;
71187;SDS011;58893;53.130;8.158;2022-10-29T07:49:29;30.00;;;8.70;;
71187;SDS011;58893;53.130;8.158;2022-10-29T07:51:55;25.00;;;8.60;;
71187;SDS011;58893;53.130;8.158;2022-10-29T07:54:20;17.33;;;8.00;;
71187;SDS011;58893;53.130;8.158;2022-10-29T07:56:46;22.33;;;7.93;;
71187;SDS011;58893;53.130;8.158;2022-10-29T07:59:12;20.13;;;7.87;;
71187;SDS011;58893;53.130;8.158;2022-10-29T08:01:39;22.70;;;8.50;;
71187;SDS011;58893;53.130;8.158;2022-10-29T08:04:04;26.10;;;7.50;;
71187;SDS011;58893;53.130;8.158;2022-10-29T08:06:30;20.83;;;8.37;;
71187;SDS011;58893;53.130;8.158;2022-10-29T08:08:56;21.43;;;7.33;;
71187;SDS011;58893;53.130;8.158;2022-10-29T08:11:22;18.80;;;8.50;;
71187;SDS011;58893;53.130;8.158;2022-10-29T08:13:47;20.80;;;8.40;;
71187;SDS011;58893;53.130;8.158;2022-10-29T08:16:13;21.63;;;8.53;;
71187;SDS011;58893;53.130;8.158;2022-10-29T08:18:39;22.77;;;8.70;;
71187;SDS011;58893;53.130;8.158;2022-10-29T08:21:04;21.80;;;9.53;;
71187;SDS011;58893;53.130;8.158;2022-10-29T08:23:30;23.40;;;9.20;;
71187;SDS011;58893;53.130;8.158;2022-10-29T08:25:57;24.67;;;9.47;;
71187;SDS011;58893;53.130;8.158;2022-10-29T08:28:23;20.63;;;8.03;;
71187;SDS011;58893;53.130;8.158;2022-10-29T08:30:48;21.20;;;8.63;;
71187;SDS011;58893;53.130;8.158;2022-10-29T08:33:14;19.70;;;9.30;;
71187;SDS011;58893;53.130;8.158;2022-10-29T08:35:40;22.13;;;9.00;;
71187;SDS011;58893;53.130;8.158;2022-10-29T08:38:05;21.33;;;7.80;;
71187;SDS011;58893;53.130;8.158;2022-10-29T08:49:22;81.80;;;10.37;;
71187;SDS011;58893;53.130;8.158;2022-10-29T08:52:04;29.37;;;9.70;;
71187;SDS011;58893;53.130;8.158;2022-10-29T08:54:36;25.10;;;8.07;;
71187;SDS011;58893;53.130;8.158;2022-10-29T08:57:09;28.03;;;8.40;;
71187;SDS011;58893;53.130;8.158;2022-10-29T08:59:42;24.23;;;8.83;;
71187;SDS011;58893;53.130;8.158;2022-10-29T09:02:14;22.80;;;8.87;;
71187;SDS011;58893;53.130;8.158;2022-10-29T09:04:42;19.97;;;7.77;;
71187;SDS011;58893;53.130;8.158;2022-10-29T09:09:56;27.33;;;9.30;;
71187;SDS011;58893;53.130;8.158;2022-10-29T09:26:01;18.93;;;9.60;;
71187;SDS011;58893;53.130;8.158;2022-10-29T09:28:32;16.33;;;8.47;;
71187;SDS011;58893;53.130;8.158;2022-10-29T09:33:53;27.33;;;9.73;;
71187;SDS011;58893;53.130;8.158;2022-10-29T09:36:25;30.87;;;10.40;;
71187;SDS011;58893;53.130;8.158;2022-10-29T09:38:55;20.57;;;9.00;;
71187;SDS011;58893;53.130;8.158;2022-10-29T09:41:24;21.27;;;10.33;;
71187;SDS011;58893;53.130;8.158;2022-10-29T09:46:34;21.77;;;10.27;;
71187;SDS011;58893;53.130;8.158;2022-10-29T09:51:48;42.97;;;15.13;;
71187;SDS011;58893;53.130;8.158;2022-10-29T09:54:32;26.83;;;11.23;;
71187;SDS011;58893;53.130;8.158;2022-10-29T09:56:58;23.60;;;9.80;;
71187;SDS011;58893;53.130;8.158;2022-10-29T09:59:33;26.07;;;10.17;;
71187;SDS011;58893;53.130;8.158;2022-10-29T10:05:25;29.23;;;11.03;;
71187;SDS011;58893;53.130;8.158;2022-10-29T10:08:12;34.50;;;11.17;;
71187;SDS011;58893;53.130;8.158;2022-10-29T10:10:51;23.20;;;11.80;;
71187;SDS011;58893;53.130;8.158;2022-10-29T10:13:19;27.53;;;12.17;;
71187;SDS011;58893;53.130;8.158;2022-10-29T10:15:51;27.33;;;13.87;;
71187;SDS011;58893;53.130;8.158;2022-10-29T10:18:25;33.90;;;11.67;;
71187;SDS011;58893;53.130;8.158;2022-10-29T10:21:10;30.00;;;12.87;;
71187;SDS011;58893;53.130;8.158;2022-10-29T10:31:39;33.30;;;13.40;;
71187;SDS011;58893;53.130;8.158;2022-10-29T10:36:44;36.63;;;12.73;;
71187;SDS011;58893;53.130;8.158;2022-10-29T10:39:33;36.00;;;10.93;;
71187;SDS011;58893;53.130;8.158;2022-10-29T10:42:15;24.67;;;11.30;;
71187;SDS011;58893;53.130;8.158;2022-10-29T10:44:51;28.07;;;13.93;;
71187;SDS011;58893;53.130;8.158;2022-10-29T10:47:21;29.63;;;12.53;;
71187;SDS011;58893;53.130;8.158;2022-10-29T10:49:49;29.60;;;13.17;;
71187;SDS011;58893;53.130;8.158;2022-10-29T10:57:21;28.93;;;12.77;;
71187;SDS011;58893;53.130;8.158;2022-10-29T10:59:57;28.30;;;13.17;;
71187;SDS011;58893;53.130;8.158;2022-10-29T11:02:38;40.57;;;14.20;;
71187;SDS011;58893;53.130;8.158;2022-10-29T11:07:44;29.00;;;13.43;;
71187;SDS011;58893;53.130;8.158;2022-10-29T11:10:19;36.97;;;13.80;;
71187;SDS011;58893;53.130;8.158;2022-10-29T11:12:51;37.20;;;13.87;;
71187;SDS011;58893;53.130;8.158;2022-10-29T11:15:24;37.23;;;14.90;;
71187;SDS011;58893;53.130;8.158;2022-10-29T11:21:14;29.23;;;11.90;;
71187;SDS011;58893;53.130;8.158;2022-10-29T11:23:53;31.90;;;13.47;;
71187;SDS011;58893;53.130;8.158;2022-10-29T11:29:03;23.63;;;13.10;;
71187;SDS011;58893;53.130;8.158;2022-10-29T11:42:26;30.87;;;11.77;;
71187;SDS011;58893;53.130;8.158;2022-10-29T11:44:52;22.57;;;12.70;;
71187;SDS011;58893;53.130;8.158;2022-10-29T11:52:51;34.43;;;13.37;;
71187;SDS011;58893;53.130;8.158;2022-10-29T12:00:59;23.13;;;12.13;;
71187;SDS011;58893;53.130;8.158;2022-10-29T12:04:27;35.27;;;13.00;;
71187;SDS011;58893;53.130;8.158;2022-10-29T12:12:01;27.10;;;11.90;;
71187;SDS011;58893;53.130;8.158;2022-10-29T12:17:05;31.40;;;12.60;;
71187;SDS011;58893;53.130;8.158;2022-10-29T12:19:47;27.57;;;12.10;;
71187;SDS011;58893;53.130;8.158;2022-10-29T12:27:22;25.90;;;11.10;;
71187;SDS011;58893;53.130;8.158;2022-10-29T12:30:12;31.43;;;12.00;;
71187;SDS011;58893;53.130;8.158;2022-10-29T12:40:34;23.07;;;12.00;;
71187;SDS011;58893;53.130;8.158;2022-10-29T12:43:10;31.50;;;11.00;;
71187;SDS011;58893;53.130;8.158;2022-10-29T12:48:54;24.10;;;10.67;;
71187;SDS011;58893;53.130;8.158;2022-10-29T12:51:55;25.37;;;11.87;;
71187;SDS011;58893;53.130;8.158;2022-10-29T12:54:30;24.30;;;10.20;;
71187;SDS011;58893;53.130;8.158;2022-10-29T12:59:38;28.07;;;9.97;;
71187;SDS011;58893;53.130;8.158;2022-10-29T13:05:12;25.43;;;9.27;;
71187;SDS011;58893;53.130;8.158;2022-10-29T13:15:28;21.77;;;10.50;;
71187;SDS011;58893;53.130;8.158;2022-10-29T13:17:55;25.80;;;10.57;;
71187;SDS011;58893;53.130;8.158;2022-10-29T13:20:42;21.87;;;10.60;;
71187;SDS011;58893;53.130;8.158;2022-10-29T13:25:48;19.43;;;9.67;;
71187;SDS011;58893;53.130;8.158;2022-10-29T13:30:50;27.23;;;11.43;;
71187;SDS011;58893;53.130;8.158;2022-10-29T13:38:45;39.13;;;11.63;;
71187;SDS011;58893;53.130;8.158;2022-10-29T13:41:28;23.50;;;8.97;;
71187;SDS011;58893;53.130;8.158;2022-10-29T13:49:28;28.00;;;9.40;;
71187;SDS011;58893;53.130;8.158;2022-10-29T14:18:38;32.37;;;9.50;;
71187;SDS011;58893;53.130;8.158;2022-10-29T14:21:06;21.03;;;10.13;;
71187;SDS011;58893;53.130;8.158;2022-10-29T14:23:53;21.40;;;10.13;;
71187;SDS011;58893;53.130;8.158;2022-10-29T14:26:27;22.80;;;9.37;;
71187;SDS011;58893;53.130;8.158;2022-10-29T14:28:55;37.73;;;10.70;;
71187;SDS011;58893;53.130;8.158;2022-10-29T14:31:21;29.57;;;10.27;;
71187;SDS011;58893;53.130;8.158;2022-10-29T14:41:32;28.80;;;10.90;;
71187;SDS011;58893;53.130;8.158;2022-10-29T14:46:34;28.77;;;12.20;;
71187;SDS011;58893;53.130;8.158;2022-10-29T14:51:26;35.57;;;12.13;;
71187;SDS011;58893;53.130;8.158;2022-10-29T14:54:00;34.60;;;12.00;;
71187;SDS011;58893;53.130;8.158;2022-10-29T14:56:34;28.70;;;11.40;;
71187;SDS011;58893;53.130;8.158;2022-10-29T14:59:23;28.93;;;11.77;;
71187;SDS011;58893;53.130;8.158;2022-10-29T15:01:54;30.27;;;11.97;;
71187;SDS011;58893;53.130;8.158;2022-10-29T15:04:24;31.60;;;11.23;;
71187;SDS011;58893;53.130;8.158;2022-10-29T15:06:52;33.70;;;12.80;;
71187;SDS011;58893;53.130;8.158;2022-10-29T15:09:38;42.63;;;12.87;;
71187;SDS011;58893;53.130;8.158;2022-10-29T15:12:18;26.90;;;11.83;;
71187;SDS011;58893;53.130;8.158;2022-10-29T15:14:46;25.77;;;10.70;;
71187;SDS011;58893;53.130;8.158;2022-10-29T15:17:16;29.63;;;11.40;;
71187;SDS011;58893;53.130;8.158;2022-10-29T15:19:43;33.43;;;11.67;;
71187;SDS011;58893;53.130;8.158;2022-10-29T15:22:10;36.33;;;11.93;;
71187;SDS011;58893;53.130;8.158;2022-10-29T15:24:44;26.20;;;11.27;;
71187;SDS011;58893;53.130;8.158;2022-10-29T15:27:12;34.27;;;10.77;;
71187;SDS011;58893;53.130;8.158;2022-10-29T15:29:39;30.90;;;11.50;;
71187;SDS011;58893;53.130;8.158;2022-10-29T15:32:05;46.53;;;12.50;;
71187;SDS011;58893;53.130;8.158;2022-10-29T15:34:45;36.50;;;11.57;;
71187;SDS011;58893;53.130;8.158;2022-10-29T15:37:21;32.90;;;12.50;;
71187;SDS011;58893;53.130;8.158;2022-10-29T15:42:21;26.10;;;10.40;;
71187;SDS011;58893;53.130;8.158;2022-10-29T15:50:42;31.03;;;11.10;;
71187;SDS011;58893;53.130;8.158;2022-10-29T15:53:13;33.80;;;13.90;;
71187;SDS011;58893;53.130;8.158;2022-10-29T15:55:40;24.60;;;11.70;;
71187;SDS011;58893;53.130;8.158;2022-10-29T16:00:43;27.37;;;11.87;;
71187;SDS011;58893;53.130;8.158;2022-10-29T16:03:19;30.80;;;10.50;;
71187;SDS011;58893;53.130;8.158;2022-10-29T16:05:49;48.17;;;10.93;;
71187;SDS011;58893;53.130;8.158;2022-10-29T16:08:29;41.50;;;11.50;;
71187;SDS011;58893;53.130;8.158;2022-10-29T16:10:58;28.03;;;11.60;;
71187;SDS011;58893;53.130;8.158;2022-10-29T16:13:26;32.30;;;12.47;;
71187;SDS011;58893;53.130;8.158;2022-10-29T16:15:54;30.87;;;12.67;;
71187;SDS011;58893;53.130;8.158;2022-10-29T16:18:19;42.30;;;15.63;;
71187;SDS011;58893;53.130;8.158;2022-10-29T16:20:46;43.30;;;17.20;;
71187;SDS011;58893;53.130;8.158;2022-10-29T16:23:12;32.23;;;13.53;;
71187;SDS011;58893;53.130;8.158;2022-10-29T16:25:39;34.73;;;13.37;;
71187;SDS011;58893;53.130;8.158;2022-10-29T16:28:05;44.07;;;13.13;;
71187;SDS011;58893;53.130;8.158;2022-10-29T16:30:30;35.47;;;15.60;;
71187;SDS011;58893;53.130;8.158;2022-10-29T16:32:56;30.87;;;13.17;;
71187;SDS011;58893;53.130;8.158;2022-10-29T16:35:23;33.00;;;13.40;;
71187;SDS011;58893;53.130;8.158;2022-10-29T16:37:50;42.50;;;13.30;;
71187;SDS011;58893;53.130;8.158;2022-10-29T16:40:17;44.07;;;14.37;;
71187;SDS011;58893;53.130;8.158;2022-10-29T16:42:44;35.87;;;14.17;;
71187;SDS011;58893;53.130;8.158;2022-10-29T16:45:17;53.67;;;17.50;;
71187;SDS011;58893;53.130;8.158;2022-10-29T16:47:51;34.20;;;13.37;;
71187;SDS011;58893;53.130;8.158;2022-10-29T16:50:18;31.73;;;13.83;;
71187;SDS011;58893;53.130;8.158;2022-10-29T16:52:54;54.30;;;19.43;;
71187;SDS011;58893;53.130;8.158;2022-10-29T16:55:30;60.53;;;27.57;;
71187;SDS011;58893;53.130;8.158;2022-10-29T16:57:58;79.57;;;29.60;;
71187;SDS011;58893;53.130;8.158;2022-10-29T17:00:24;61.70;;;25.27;;
71187;SDS011;58893;53.130;8.158;2022-10-29T17:02:50;57.10;;;23.87;;
71187;SDS011;58893;53.130;8.158;2022-10-29T17:05:16;44.80;;;21.60;;
71187;SDS011;58893;53.130;8.158;2022-10-29T17:07:42;38.60;;;15.93;;
71187;SDS011;58893;53.130;8.158;2022-10-29T17:10:07;34.40;;;14.40;;
71187;SDS011;58893;53.130;8.158;2022-10-29T17:12:33;39.37;;;16.00;;
71187;SDS011;58893;53.130;8.158;2022-10-29T17:14:59;29.90;;;13.77;;
71187;SDS011;58893;53.130;8.158;2022-10-29T17:17:25;37.87;;;16.30;;
71187;SDS011;58893;53.130;8.158;2022-10-29T17:19:53;50.90;;;19.47;;
71187;SDS011;58893;53.130;8.158;2022-10-29T17:22:19;57.23;;;23.23;;
71187;SDS011;58893;53.130;8.158;2022-10-29T17:24:44;74.27;;;30.43;;
71187;SDS011;58893;53.130;8.158;2022-10-29T17:27:11;47.90;;;20.23;;
71187;SDS011;58893;53.130;8.158;2022-10-29T17:29:37;45.00;;;21.47;;
71187;SDS011;58893;53.130;8.158;2022-10-29T17:32:03;35.77;;;18.70;;
71187;SDS011;58893;53.130;8.158;2022-10-29T17:34:30;48.23;;;20.90;;
71187;SDS011;58893;53.130;8.158;2022-10-29T17:36:55;45.63;;;19.00;;
71187;SDS011;58893;53.130;8.158;2022-10-29T17:39:21;35.93;;;17.87;;
71187;SDS011;58893;53.130;8.158;2022-10-29T17:41:47;46.60;;;19.40;;
71187;SDS011;58893;53.130;8.158;2022-10-29T17:44:13;42.67;;;18.60;;
71187;SDS011;58893;53.130;8.158;2022-10-29T17:46:39;30.30;;;15.63;;
71187;SDS011;58893;53.130;8.158;2022-10-29T17:49:04;42.10;;;16.47;;
71187;SDS011;58893;53.130;8.158;2022-10-29T17:51:30;37.13;;;15.60;;
71187;SDS011;58893;53.130;8.158;2022-10-29T17:53:56;44.50;;;16.53;;
71187;SDS011;58893;53.130;8.158;2022-10-29T17:56:22;42.97;;;17.90;;
71187;SDS011;58893;53.130;8.158;2022-10-29T17:58:47;35.40;;;15.30;;
71187;SDS011;58893;53.130;8.158;2022-10-29T18:01:13;32.97;;;15.90;;
71187;SDS011;58893;53.130;8.158;2022-10-29T18:03:39;43.03;;;15.80;;
71187;SDS011;58893;53.130;8.158;2022-10-29T18:06:06;37.03;;;16.17;;
71187;SDS011;58893;53.130;8.158;2022-10-29T18:08:34;38.10;;;14.80;;
71187;SDS011;58893;53.130;8.158;2022-10-29T18:11:04;41.50;;;16.47;;
71187;SDS011;58893;53.130;8.158;2022-10-29T18:13:35;41.30;;;15.83;;
71187;SDS011;58893;53.130;8.158;2022-10-29T18:16:05;45.87;;;14.50;;
71187;SDS011;58893;53.130;8.158;2022-10-29T18:18:35;48.87;;;18.37;;
71187;SDS011;58893;53.130;8.158;2022-10-29T18:21:03;43.37;;;21.37;;